Snav Lazio — IBUH — position and weather

sailwx.info

Track history (hours):
 
Tides and Currents Weather Stations Pressure Air Temp Water Temp Dewpoint Dewpoint Depression Visibility Wind Speed Wind Dir Waves Ship Positions

Snav Lazio

Last reported at 2014-Jul-30 10:25 UTC. Time now 2014-Jul-30 11:16 UTC.
Position N 38°08' E 013°22'.

Length 162 m; draft 6 m.

Type: Passenger vessel. MMSI: 247163100.

Date/timePositionNaut miles runAvg speedWind from/ knotsBaromVisibWave heightAir tempDewpointWater temp
2014-Jul-30 10:25N 38°08' E 013°22'0 0.0
2014-Jul-30 09:25N 38°08' E 013°22'0 0.0
2014-Jul-30 08:28N 38°08' E 013°22'0 0.0
2014-Jul-30 07:31N 38°08' E 013°22'0 0.0
2014-Jul-30 06:31N 38°08' E 013°22'0 0.0
2014-Jul-30 05:31N 38°08' E 013°22'0 0.0
2014-Jul-30 04:31N 38°08' E 013°22'9 9.4
2014-Jul-30 03:33N 38°16' E 013°28'1818.1
2014-Jul-30 02:33N 38°33' E 013°34'5818.2
2014-Jul-29 23:23N 39°29' E 013°50'5017.7
2014-Jul-29 20:33N 40°19' E 014°02'1716.7
2014-Jul-29 19:34N 40°35' E 014°08'1616.2
2014-Jul-29 18:33N 40°50' E 014°17'1 1.2
2014-Jul-29 17:32N 40°50' E 014°15'0 0.0
2014-Jul-29 16:32N 40°50' E 014°15'0 0.0
2014-Jul-29 15:33N 40°50' E 014°15'0 0.0
2014-Jul-29 14:32N 40°50' E 014°15'8 0.8
2014-Jul-29 03:33N 40°42' E 014°13'1918.9
2014-Jul-29 02:33N 40°24' E 014°05'11117.5
2014-Jul-28 20:12N 38°36' E 013°34'1116.8
2014-Jul-28 19:31N 38°25' E 013°31'1617.1
2014-Jul-28 18:33N 38°09' E 013°26'3 3.1
2014-Jul-28 17:31N 38°08' E 013°22'0 0.0
2014-Jul-28 16:28N 38°08' E 013°22'0 0.0
2014-Jul-28 15:31N 38°08' E 013°22'0 0.0
2014-Jul-28 14:31N 38°08' E 013°22'0 0.0
2014-Jul-28 13:31N 38°08' E 013°22'0 0.0
2014-Jul-28 12:31N 38°08' E 013°22'0 0.0
2014-Jul-28 11:31N 38°08' E 013°22'0 0.0
2014-Jul-28 10:31N 38°08' E 013°22'0 0.0
2014-Jul-28 09:31N 38°08' E 013°22'0 0.0
2014-Jul-28 08:28N 38°08' E 013°22'0 0.0
2014-Jul-28 07:31N 38°08' E 013°22'0 0.0
2014-Jul-28 06:31N 38°08' E 013°22'0 0.0
2014-Jul-28 05:31N 38°08' E 013°22'0 0.0
2014-Jul-28 04:31N 38°08' E 013°22'6 6.0
2014-Jul-28 03:33N 38°13' E 013°25'1919.2
2014-Jul-28 02:33N 38°32' E 013°31'3919.3
2014-Jul-28 00:31N 39°10' E 013°42'1919.5
2014-Jul-27 23:33N 39°28' E 013°47'2019.6
2014-Jul-27 22:33N 39°47' E 013°53'3919.3
2014-Jul-27 20:33N 40°25' E 014°05'1919.2
2014-Jul-27 19:33N 40°43' E 014°13'0 0.1
2014-Jul-27 15:33N 40°43' E 014°14'1919.0
2014-Jul-27 14:33N 40°25' E 014°05'11719.4
2014-Jul-27 08:33N 38°31' E 013°32'1918.9
2014-Jul-27 07:33N 38°13' E 013°27'6 6.0
2014-Jul-27 06:31N 38°08' E 013°22'0 0.0
2014-Jul-27 05:31N 38°08' E 013°22'0 0.0
2014-Jul-27 04:33N 38°08' E 013°22'1111.2
2014-Jul-27 03:33N 38°18' E 013°28'1919.3
2014-Jul-27 02:33N 38°37' E 013°33'4518.9
2014-Jul-27 00:10N 39°21' E 013°47'1118.5
2014-Jul-26 23:33N 39°32' E 013°50'4418.4
2014-Jul-26 21:11N 40°15' E 014°02'1218.6
2014-Jul-26 20:33N 40°26' E 014°05'1918.6
2014-Jul-26 19:33N 40°43' E 014°14'7 2.3
2014-Jul-26 16:25N 40°50' E 014°16'1213.5
2014-Jul-26 15:34N 40°39' E 014°11'1919.0
2014-Jul-26 14:33N 40°21' E 014°04'1919.2
2014-Jul-26 13:33N 40°02' E 013°58'1919.3
2014-Jul-26 12:33N 39°44' E 013°53'1919.0
2014-Jul-26 11:33N 39°25' E 013°47'1919.0
2014-Jul-26 10:33N 39°07' E 013°42'3819.2
2014-Jul-26 08:33N 38°29' E 013°31'22 5.5
2014-Jul-26 04:31N 38°08' E 013°22'9 9.2
2014-Jul-26 03:34N 38°16' E 013°27'1818.2
2014-Jul-26 02:34N 38°34' E 013°32'1817.6
2014-Jul-26 01:34N 38°51' E 013°37'1616.4
2014-Jul-26 00:33N 39°07' E 013°40'1818.0
2014-Jul-25 23:34N 39°25' E 013°45'1717.3
2014-Jul-25 22:33N 39°42' E 013°50'2017.1
2014-Jul-25 21:24N 40°01' E 013°57'1617.4
2014-Jul-25 20:30N 40°16' E 014°02'1617.5
2014-Jul-25 19:33N 40°32' E 014°07'1717.2
2014-Jul-25 18:33N 40°48' E 014°16'5 0.3
2014-Jul-25 03:33N 40°43' E 014°14'1817.7
2014-Jul-25 02:33N 40°27' E 014°07'12117.3
2014-Jul-24 19:33N 38°28' E 013°31'1817.7
2014-Jul-24 18:33N 38°11' E 013°26'5 4.6
2014-Jul-24 17:33N 38°08' E 013°22'0 0.0
2014-Jul-24 16:33N 38°08' E 013°22'0 0.0
2014-Jul-24 15:33N 38°08' E 013°22'0 0.0
2014-Jul-24 14:33N 38°08' E 013°22'0 0.0
2014-Jul-24 13:33N 38°08' E 013°22'0 0.0
2014-Jul-24 12:33N 38°08' E 013°22'0 0.0
2014-Jul-24 11:33N 38°08' E 013°22'0 0.0
2014-Jul-24 10:33N 38°08' E 013°22'0 0.0
2014-Jul-24 09:33N 38°08' E 013°22'0 0.0
2014-Jul-24 08:33N 38°08' E 013°22'0 0.0
2014-Jul-24 07:33N 38°08' E 013°22'0 0.0
2014-Jul-24 06:33N 38°08' E 013°22'0 0.0
2014-Jul-24 05:33N 38°08' E 013°22'0 0.0
2014-Jul-24 04:33N 38°08' E 013°22'7 7.1
2014-Jul-24 03:33N 38°14' E 013°26'1818.4
2014-Jul-24 02:33N 38°32' E 013°32'1918.4
2014-Jul-24 01:33N 38°50' E 013°38'8917.8
2014-Jul-23 20:33N 40°17' E 014°02'1717.1
2014-Jul-23 19:33N 40°33' E 014°08'1716.9
2014-Jul-23 18:33N 40°49' E 014°17'6 0.4
2014-Jul-23 03:33N 40°43' E 014°14'1818.3
2014-Jul-23 02:33N 40°26' E 014°05'11117.6
2014-Jul-22 20:15N 38°37' E 013°34'1216.5
2014-Jul-22 19:33N 38°26' E 013°31'1616.4
2014-Jul-22 18:33N 38°10' E 013°26'4 4.0
2014-Jul-22 17:33N 38°08' E 013°22'0 0.0
2014-Jul-22 16:33N 38°08' E 013°22'0 0.0
2014-Jul-22 15:33N 38°08' E 013°22'0 0.0
2014-Jul-22 14:33N 38°08' E 013°22'0 0.0
2014-Jul-22 13:33N 38°08' E 013°22'0 0.0
2014-Jul-22 12:33N 38°08' E 013°22'0 0.0
2014-Jul-22 11:33N 38°08' E 013°22'0 0.0
2014-Jul-22 10:33N 38°08' E 013°22'0 0.0
2014-Jul-22 09:33N 38°08' E 013°22'0 0.0
2014-Jul-22 08:33N 38°08' E 013°22'0 0.0
2014-Jul-22 07:34N 38°08' E 013°22'0 0.0
2014-Jul-22 06:33N 38°08' E 013°22'0 0.0
2014-Jul-22 05:33N 38°08' E 013°22'0 0.0
2014-Jul-22 04:33N 38°08' E 013°22'8 8.2
2014-Jul-22 03:34N 38°15' E 013°28'1818.4
2014-Jul-22 02:33N 38°33' E 013°34'7918.0
2014-Jul-21 22:10N 39°50' E 013°55'1217.7
2014-Jul-21 21:30N 40°02' E 013°59'1717.5
2014-Jul-21 20:33N 40°18' E 014°04'417.4
2014-Jul-21 20:18N 40°22' E 014°05'1317.3
2014-Jul-21 19:33N 40°34' E 014°09'17 1.2
2014-Jul-21 05:28N 40°50' E 014°15'0 0.1
2014-Jul-21 04:06N 40°50' E 014°16'611.5
2014-Jul-21 03:33N 40°44' E 014°15'1817.7
2014-Jul-21 02:34N 40°28' E 014°06'1817.8
2014-Jul-21 01:33N 40°10' E 014°02'1817.8
2014-Jul-21 00:34N 39°53' E 013°57'1817.8
2014-Jul-20 23:33N 39°36' E 013°52'1817.7
2014-Jul-20 22:33N 39°18' E 013°47'1817.9
2014-Jul-20 21:33N 39°01' E 013°41'1818.0
2014-Jul-20 20:33N 38°43' E 013°36'1817.9
2014-Jul-20 19:33N 38°26' E 013°31'1817.9
2014-Jul-20 18:34N 38°09' E 013°25'3 2.8
2014-Jul-20 17:31N 38°08' E 013°22'0 0.0
2014-Jul-20 16:31N 38°08' E 013°22'0 0.0
2014-Jul-20 15:31N 38°08' E 013°22'0 0.0
2014-Jul-20 14:31N 38°08' E 013°22'0 0.0
2014-Jul-20 13:31N 38°08' E 013°22'0 0.0
2014-Jul-20 12:31N 38°08' E 013°22'0 0.0
2014-Jul-20 11:28N 38°08' E 013°22'0 0.0
2014-Jul-20 10:31N 38°08' E 013°22'  
Track history (hours):
 
Tides and Currents Weather Stations Pressure Air Temp Water Temp Dewpoint Dewpoint Depression Visibility Wind Speed Wind Dir Waves Ship Positions

Snav Lazio

Last reported at 2014-Jul-30 10:25 UTC. Time now 2014-Jul-30 11:16 UTC.
Position N 38°08' E 013°22'.

Length 162 m; draft 6 m.

Type: Passenger vessel. MMSI: 247163100.

Date/timePositionNaut miles runAvg speedWind from/ knotsBaromVisibWave heightAir tempDewpointWater temp
2014-Jul-30 10:25N 38°08' E 013°22'0 0.0
2014-Jul-30 09:25N 38°08' E 013°22'0 0.0
2014-Jul-30 08:28N 38°08' E 013°22'0 0.0
2014-Jul-30 07:31N 38°08' E 013°22'0 0.0
2014-Jul-30 06:31N 38°08' E 013°22'0 0.0
2014-Jul-30 05:31N 38°08' E 013°22'0 0.0
2014-Jul-30 04:31N 38°08' E 013°22'9 9.4
2014-Jul-30 03:33N 38°16' E 013°28'1818.1
2014-Jul-30 02:33N 38°33' E 013°34'5818.2
2014-Jul-29 23:23N 39°29' E 013°50'5017.7
2014-Jul-29 20:33N 40°19' E 014°02'1716.7
2014-Jul-29 19:34N 40°35' E 014°08'1616.2
2014-Jul-29 18:33N 40°50' E 014°17'1 1.2
2014-Jul-29 17:32N 40°50' E 014°15'0 0.0
2014-Jul-29 16:32N 40°50' E 014°15'0 0.0
2014-Jul-29 15:33N 40°50' E 014°15'0 0.0
2014-Jul-29 14:32N 40°50' E 014°15'8 0.8
2014-Jul-29 03:33N 40°42' E 014°13'1918.9
2014-Jul-29 02:33N 40°24' E 014°05'11117.5
2014-Jul-28 20:12N 38°36' E 013°34'1116.8
2014-Jul-28 19:31N 38°25' E 013°31'1617.1
2014-Jul-28 18:33N 38°09' E 013°26'3 3.1
2014-Jul-28 17:31N 38°08' E 013°22'0 0.0
2014-Jul-28 16:28N 38°08' E 013°22'0 0.0
2014-Jul-28 15:31N 38°08' E 013°22'0 0.0
2014-Jul-28 14:31N 38°08' E 013°22'0 0.0
2014-Jul-28 13:31N 38°08' E 013°22'0 0.0
2014-Jul-28 12:31N 38°08' E 013°22'0 0.0
2014-Jul-28 11:31N 38°08' E 013°22'0 0.0
2014-Jul-28 10:31N 38°08' E 013°22'0 0.0
2014-Jul-28 09:31N 38°08' E 013°22'0 0.0
2014-Jul-28 08:28N 38°08' E 013°22'0 0.0
2014-Jul-28 07:31N 38°08' E 013°22'0 0.0
2014-Jul-28 06:31N 38°08' E 013°22'0 0.0
2014-Jul-28 05:31N 38°08' E 013°22'0 0.0
2014-Jul-28 04:31N 38°08' E 013°22'6 6.0
2014-Jul-28 03:33N 38°13' E 013°25'1919.2
2014-Jul-28 02:33N 38°32' E 013°31'3919.3
2014-Jul-28 00:31N 39°10' E 013°42'1919.5
2014-Jul-27 23:33N 39°28' E 013°47'2019.6
2014-Jul-27 22:33N 39°47' E 013°53'3919.3
2014-Jul-27 20:33N 40°25' E 014°05'1919.2
2014-Jul-27 19:33N 40°43' E 014°13'0 0.1
2014-Jul-27 15:33N 40°43' E 014°14'1919.0
2014-Jul-27 14:33N 40°25' E 014°05'11719.4
2014-Jul-27 08:33N 38°31' E 013°32'1918.9
2014-Jul-27 07:33N 38°13' E 013°27'6 6.0
2014-Jul-27 06:31N 38°08' E 013°22'0 0.0
2014-Jul-27 05:31N 38°08' E 013°22'0 0.0
2014-Jul-27 04:33N 38°08' E 013°22'1111.2
2014-Jul-27 03:33N 38°18' E 013°28'1919.3
2014-Jul-27 02:33N 38°37' E 013°33'4518.9
2014-Jul-27 00:10N 39°21' E 013°47'1118.5
2014-Jul-26 23:33N 39°32' E 013°50'4418.4
2014-Jul-26 21:11N 40°15' E 014°02'1218.6
2014-Jul-26 20:33N 40°26' E 014°05'1918.6
2014-Jul-26 19:33N 40°43' E 014°14'7 2.3
2014-Jul-26 16:25N 40°50' E 014°16'1213.5
2014-Jul-26 15:34N 40°39' E 014°11'1919.0
2014-Jul-26 14:33N 40°21' E 014°04'1919.2
2014-Jul-26 13:33N 40°02' E 013°58'1919.3
2014-Jul-26 12:33N 39°44' E 013°53'1919.0
2014-Jul-26 11:33N 39°25' E 013°47'1919.0
2014-Jul-26 10:33N 39°07' E 013°42'3819.2
2014-Jul-26 08:33N 38°29' E 013°31'22 5.5
2014-Jul-26 04:31N 38°08' E 013°22'9 9.2
2014-Jul-26 03:34N 38°16' E 013°27'1818.2
2014-Jul-26 02:34N 38°34' E 013°32'1817.6
2014-Jul-26 01:34N 38°51' E 013°37'1616.4
2014-Jul-26 00:33N 39°07' E 013°40'1818.0
2014-Jul-25 23:34N 39°25' E 013°45'1717.3
2014-Jul-25 22:33N 39°42' E 013°50'2017.1
2014-Jul-25 21:24N 40°01' E 013°57'1617.4
2014-Jul-25 20:30N 40°16' E 014°02'1617.5
2014-Jul-25 19:33N 40°32' E 014°07'1717.2
2014-Jul-25 18:33N 40°48' E 014°16'5 0.3
2014-Jul-25 03:33N 40°43' E 014°14'1817.7
2014-Jul-25 02:33N 40°27' E 014°07'12117.3
2014-Jul-24 19:33N 38°28' E 013°31'1817.7
2014-Jul-24 18:33N 38°11' E 013°26'5 4.6
2014-Jul-24 17:33N 38°08' E 013°22'0 0.0
2014-Jul-24 16:33N 38°08' E 013°22'0 0.0
2014-Jul-24 15:33N 38°08' E 013°22'0 0.0
2014-Jul-24 14:33N 38°08' E 013°22'0 0.0
2014-Jul-24 13:33N 38°08' E 013°22'0 0.0
2014-Jul-24 12:33N 38°08' E 013°22'0 0.0
2014-Jul-24 11:33N 38°08' E 013°22'0 0.0
2014-Jul-24 10:33N 38°08' E 013°22'0 0.0
2014-Jul-24 09:33N 38°08' E 013°22'0 0.0
2014-Jul-24 08:33N 38°08' E 013°22'0 0.0
2014-Jul-24 07:33N 38°08' E 013°22'0 0.0
2014-Jul-24 06:33N 38°08' E 013°22'0 0.0
2014-Jul-24 05:33N 38°08' E 013°22'0 0.0
2014-Jul-24 04:33N 38°08' E 013°22'7 7.1
2014-Jul-24 03:33N 38°14' E 013°26'1818.4
2014-Jul-24 02:33N 38°32' E 013°32'1918.4
2014-Jul-24 01:33N 38°50' E 013°38'8917.8
2014-Jul-23 20:33N 40°17' E 014°02'1717.1
2014-Jul-23 19:33N 40°33' E 014°08'1716.9
2014-Jul-23 18:33N 40°49' E 014°17'6 0.4
2014-Jul-23 03:33N 40°43' E 014°14'1818.3
2014-Jul-23 02:33N 40°26' E 014°05'11117.6
2014-Jul-22 20:15N 38°37' E 013°34'1216.5
2014-Jul-22 19:33N 38°26' E 013°31'1616.4
2014-Jul-22 18:33N 38°10' E 013°26'4 4.0
2014-Jul-22 17:33N 38°08' E 013°22'0 0.0
2014-Jul-22 16:33N 38°08' E 013°22'0 0.0
2014-Jul-22 15:33N 38°08' E 013°22'0 0.0
2014-Jul-22 14:33N 38°08' E 013°22'0 0.0
2014-Jul-22 13:33N 38°08' E 013°22'0 0.0
2014-Jul-22 12:33N 38°08' E 013°22'0 0.0
2014-Jul-22 11:33N 38°08' E 013°22'0 0.0
2014-Jul-22 10:33N 38°08' E 013°22'0 0.0
2014-Jul-22 09:33N 38°08' E 013°22'0 0.0
2014-Jul-22 08:33N 38°08' E 013°22'0 0.0
2014-Jul-22 07:34N 38°08' E 013°22'0 0.0
2014-Jul-22 06:33N 38°08' E 013°22'0 0.0
2014-Jul-22 05:33N 38°08' E 013°22'0 0.0
2014-Jul-22 04:33N 38°08' E 013°22'8 8.2
2014-Jul-22 03:34N 38°15' E 013°28'1818.4
2014-Jul-22 02:33N 38°33' E 013°34'7918.0
2014-Jul-21 22:10N 39°50' E 013°55'1217.7
2014-Jul-21 21:30N 40°02' E 013°59'1717.5
2014-Jul-21 20:33N 40°18' E 014°04'417.4
2014-Jul-21 20:18N 40°22' E 014°05'1317.3
2014-Jul-21 19:33N 40°34' E 014°09'17 1.2
2014-Jul-21 05:28N 40°50' E 014°15'0 0.1
2014-Jul-21 04:06N 40°50' E 014°16'611.5
2014-Jul-21 03:33N 40°44' E 014°15'1817.7
2014-Jul-21 02:34N 40°28' E 014°06'1817.8
2014-Jul-21 01:33N 40°10' E 014°02'1817.8
2014-Jul-21 00:34N 39°53' E 013°57'1817.8
2014-Jul-20 23:33N 39°36' E 013°52'1817.7
2014-Jul-20 22:33N 39°18' E 013°47'1817.9
2014-Jul-20 21:33N 39°01' E 013°41'1818.0
2014-Jul-20 20:33N 38°43' E 013°36'1817.9
2014-Jul-20 19:33N 38°26' E 013°31'1817.9
2014-Jul-20 18:34N 38°09' E 013°25'3 2.8
2014-Jul-20 17:31N 38°08' E 013°22'0 0.0
2014-Jul-20 16:31N 38°08' E 013°22'0 0.0
2014-Jul-20 15:31N 38°08' E 013°22'0 0.0
2014-Jul-20 14:31N 38°08' E 013°22'0 0.0
2014-Jul-20 13:31N 38°08' E 013°22'0 0.0
2014-Jul-20 12:31N 38°08' E 013°22'0 0.0
2014-Jul-20 11:28N 38°08' E 013°22'0 0.0
2014-Jul-20 10:31N 38°08' E 013°22'  

Dump ship's entire track history